sensor_id;sensor_type;location;lat;lon;timestamp;temperature;humidity
22108;DHT22;11220;48.812;9.128;2023-04-01T00:01:46;18.30;74.90
22108;DHT22;11220;48.812;9.128;2023-04-01T00:04:11;18.30;74.90
22108;DHT22;11220;48.812;9.128;2023-04-01T00:06:37;18.30;74.90
22108;DHT22;11220;48.812;9.128;2023-04-01T00:09:02;18.20;74.80
22108;DHT22;11220;48.812;9.128;2023-04-01T00:11:28;18.30;74.90
22108;DHT22;11220;48.812;9.128;2023-04-01T00:13:53;18.30;75.00
22108;DHT22;11220;48.812;9.128;2023-04-01T00:16:20;18.30;75.00
22108;DHT22;11220;48.812;9.128;2023-04-01T00:18:45;18.20;74.90
22108;DHT22;11220;48.812;9.128;2023-04-01T00:21:12;18.20;74.90
22108;DHT22;11220;48.812;9.128;2023-04-01T00:23:38;18.20;74.90
22108;DHT22;11220;48.812;9.128;2023-04-01T00:26:04;18.20;74.90
22108;DHT22;11220;48.812;9.128;2023-04-01T00:28:30;18.20;74.90
22108;DHT22;11220;48.812;9.128;2023-04-01T00:30:56;18.20;74.90
22108;DHT22;11220;48.812;9.128;2023-04-01T00:33:21;18.30;75.00
22108;DHT22;11220;48.812;9.128;2023-04-01T00:35:47;18.20;75.00
22108;DHT22;11220;48.812;9.128;2023-04-01T00:38:13;18.20;74.90
22108;DHT22;11220;48.812;9.128;2023-04-01T00:40:42;18.20;74.90
22108;DHT22;11220;48.812;9.128;2023-04-01T00:43:26;18.20;75.90
22108;DHT22;11220;48.812;9.128;2023-04-01T00:45:51;18.20;74.90
22108;DHT22;11220;48.812;9.128;2023-04-01T00:48:23;18.20;74.90
22108;DHT22;11220;48.812;9.128;2023-04-01T00:50:54;18.10;74.90
22108;DHT22;11220;48.812;9.128;2023-04-01T00:53:21;18.20;75.00
22108;DHT22;11220;48.812;9.128;2023-04-01T00:55:56;18.20;75.00
22108;DHT22;11220;48.812;9.128;2023-04-01T00:58:24;18.20;75.00
22108;DHT22;11220;48.812;9.128;2023-04-01T01:00:51;18.10;75.00
22108;DHT22;11220;48.812;9.128;2023-04-01T01:03:17;18.10;75.00
22108;DHT22;11220;48.812;9.128;2023-04-01T01:08:49;18.10;75.00
22108;DHT22;11220;48.812;9.128;2023-04-01T01:11:22;18.10;75.10
22108;DHT22;11220;48.812;9.128;2023-04-01T01:13:58;18.10;75.10
22108;DHT22;11220;48.812;9.128;2023-04-01T01:16:31;18.10;75.00
22108;DHT22;11220;48.812;9.128;2023-04-01T01:27:26;18.20;75.10
22108;DHT22;11220;48.812;9.128;2023-04-01T01:30:11;18.10;75.00
22108;DHT22;11220;48.812;9.128;2023-04-01T01:35:30;18.10;75.00
22108;DHT22;11220;48.812;9.128;2023-04-01T01:37:59;18.10;75.10
22108;DHT22;11220;48.812;9.128;2023-04-01T01:40:27;18.10;75.10
22108;DHT22;11220;48.812;9.128;2023-04-01T01:42:57;18.10;75.10
22108;DHT22;11220;48.812;9.128;2023-04-01T01:45:26;18.10;75.10
22108;DHT22;11220;48.812;9.128;2023-04-01T01:47:53;18.10;75.10
22108;DHT22;11220;48.812;9.128;2023-04-01T01:50:21;18.00;75.10
22108;DHT22;11220;48.812;9.128;2023-04-01T01:52:47;18.10;75.10
22108;DHT22;11220;48.812;9.128;2023-04-01T01:55:31;18.00;75.10
22108;DHT22;11220;48.812;9.128;2023-04-01T02:01:00;18.10;75.10
22108;DHT22;11220;48.812;9.128;2023-04-01T02:03:29;18.10;75.20
22108;DHT22;11220;48.812;9.128;2023-04-01T02:05:57;18.10;75.20
22108;DHT22;11220;48.812;9.128;2023-04-01T02:08:35;18.00;75.20
22108;DHT22;11220;48.812;9.128;2023-04-01T02:11:07;18.00;75.20
22108;DHT22;11220;48.812;9.128;2023-04-01T02:13:44;18.00;75.20
22108;DHT22;11220;48.812;9.128;2023-04-01T02:16:15;18.00;75.20
22108;DHT22;11220;48.812;9.128;2023-04-01T02:18:44;18.00;75.20
22108;DHT22;11220;48.812;9.128;2023-04-01T02:21:12;18.00;75.30
22108;DHT22;11220;48.812;9.128;2023-04-01T02:23:38;18.00;75.30
22108;DHT22;11220;48.812;9.128;2023-04-01T02:26:07;18.00;75.30
22108;DHT22;11220;48.812;9.128;2023-04-01T02:28:34;18.00;75.30
22108;DHT22;11220;48.812;9.128;2023-04-01T02:31:02;18.00;75.30
22108;DHT22;11220;48.812;9.128;2023-04-01T02:33:30;18.00;75.40
22108;DHT22;11220;48.812;9.128;2023-04-01T02:35:56;18.00;75.40
22108;DHT22;11220;48.812;9.128;2023-04-01T02:38:22;18.00;75.40
22108;DHT22;11220;48.812;9.128;2023-04-01T02:40:52;18.00;75.40
22108;DHT22;11220;48.812;9.128;2023-04-01T02:43:21;18.00;75.40
22108;DHT22;11220;48.812;9.128;2023-04-01T02:45:47;18.00;75.40
22108;DHT22;11220;48.812;9.128;2023-04-01T02:48:12;18.00;76.40
22108;DHT22;11220;48.812;9.128;2023-04-01T02:50:39;18.00;75.40
22108;DHT22;11220;48.812;9.128;2023-04-01T02:53:05;18.00;75.50
22108;DHT22;11220;48.812;9.128;2023-04-01T02:55:32;18.00;75.50
22108;DHT22;11220;48.812;9.128;2023-04-01T02:57:57;17.90;75.50
22108;DHT22;11220;48.812;9.128;2023-04-01T03:00:23;17.90;75.40
22108;DHT22;11220;48.812;9.128;2023-04-01T03:02:49;18.00;76.50
22108;DHT22;11220;48.812;9.128;2023-04-01T03:05:14;17.90;75.50
22108;DHT22;11220;48.812;9.128;2023-04-01T03:07:40;17.90;75.60
22108;DHT22;11220;48.812;9.128;2023-04-01T03:10:06;17.90;75.60
22108;DHT22;11220;48.812;9.128;2023-04-01T03:12:32;17.90;75.60
22108;DHT22;11220;48.812;9.128;2023-04-01T03:14:58;18.00;75.70
22108;DHT22;11220;48.812;9.128;2023-04-01T03:17:23;17.90;75.60
22108;DHT22;11220;48.812;9.128;2023-04-01T03:19:49;17.90;75.70
22108;DHT22;11220;48.812;9.128;2023-04-01T03:22:14;17.90;75.70
22108;DHT22;11220;48.812;9.128;2023-04-01T03:24:40;17.90;75.70
22108;DHT22;11220;48.812;9.128;2023-04-01T03:27:06;17.90;75.70
22108;DHT22;11220;48.812;9.128;2023-04-01T03:29:31;17.90;75.80
22108;DHT22;11220;48.812;9.128;2023-04-01T03:31:57;17.90;75.80
22108;DHT22;11220;48.812;9.128;2023-04-01T03:34:24;17.90;75.70
22108;DHT22;11220;48.812;9.128;2023-04-01T03:36:51;17.90;75.80
22108;DHT22;11220;48.812;9.128;2023-04-01T03:39:16;17.90;75.80
22108;DHT22;11220;48.812;9.128;2023-04-01T03:41:44;17.90;75.80
22108;DHT22;11220;48.812;9.128;2023-04-01T03:44:11;17.90;75.80
22108;DHT22;11220;48.812;9.128;2023-04-01T03:46:36;17.90;75.80
22108;DHT22;11220;48.812;9.128;2023-04-01T03:49:02;17.90;75.90
22108;DHT22;11220;48.812;9.128;2023-04-01T03:51:28;17.90;75.90
22108;DHT22;11220;48.812;9.128;2023-04-01T03:53:54;17.90;75.80
22108;DHT22;11220;48.812;9.128;2023-04-01T03:56:19;17.90;75.90
22108;DHT22;11220;48.812;9.128;2023-04-01T03:58:45;17.90;75.90
22108;DHT22;11220;48.812;9.128;2023-04-01T04:01:18;17.90;75.90
22108;DHT22;11220;48.812;9.128;2023-04-01T04:03:45;17.80;75.80
22108;DHT22;11220;48.812;9.128;2023-04-01T04:06:13;17.90;75.90
22108;DHT22;11220;48.812;9.128;2023-04-01T04:08:39;17.80;75.80
22108;DHT22;11220;48.812;9.128;2023-04-01T04:11:04;17.80;75.80
22108;DHT22;11220;48.812;9.128;2023-04-01T04:13:30;17.90;75.90
22108;DHT22;11220;48.812;9.128;2023-04-01T04:15:55;17.80;75.80
22108;DHT22;11220;48.812;9.128;2023-04-01T04:18:21;17.90;75.90
22108;DHT22;11220;48.812;9.128;2023-04-01T04:20:47;17.80;76.70
22108;DHT22;11220;48.812;9.128;2023-04-01T04:23:17;17.80;75.80
22108;DHT22;11220;48.812;9.128;2023-04-01T04:25:54;17.80;75.80
22108;DHT22;11220;48.812;9.128;2023-04-01T04:28:20;17.80;75.80
22108;DHT22;11220;48.812;9.128;2023-04-01T04:30:45;17.80;75.80
22108;DHT22;11220;48.812;9.128;2023-04-01T04:33:10;17.80;75.80
22108;DHT22;11220;48.812;9.128;2023-04-01T04:35:36;17.80;75.90
22108;DHT22;11220;48.812;9.128;2023-04-01T04:38:01;17.80;75.80
22108;DHT22;11220;48.812;9.128;2023-04-01T04:40:27;17.80;75.90
22108;DHT22;11220;48.812;9.128;2023-04-01T04:42:52;17.80;75.80
22108;DHT22;11220;48.812;9.128;2023-04-01T04:45:18;17.80;75.80
22108;DHT22;11220;48.812;9.128;2023-04-01T04:47:43;17.80;75.80
22108;DHT22;11220;48.812;9.128;2023-04-01T04:50:09;17.80;75.80
22108;DHT22;11220;48.812;9.128;2023-04-01T04:52:35;17.80;75.70
22108;DHT22;11220;48.812;9.128;2023-04-01T04:55:01;17.80;75.60
22108;DHT22;11220;48.812;9.128;2023-04-01T04:57:26;17.80;75.60
22108;DHT22;11220;48.812;9.128;2023-04-01T04:59:52;17.80;75.60
22108;DHT22;11220;48.812;9.128;2023-04-01T05:02:17;17.80;75.50
22108;DHT22;11220;48.812;9.128;2023-04-01T05:04:43;17.80;75.50
22108;DHT22;11220;48.812;9.128;2023-04-01T05:07:08;17.80;75.50
22108;DHT22;11220;48.812;9.128;2023-04-01T05:09:34;17.80;76.40
22108;DHT22;11220;48.812;9.128;2023-04-01T05:11:59;17.80;75.50
22108;DHT22;11220;48.812;9.128;2023-04-01T05:14:25;17.90;75.50
22108;DHT22;11220;48.812;9.128;2023-04-01T05:16:50;17.90;75.50
22108;DHT22;11220;48.812;9.128;2023-04-01T05:19:16;17.90;75.50
22108;DHT22;11220;48.812;9.128;2023-04-01T05:21:41;17.90;75.40
22108;DHT22;11220;48.812;9.128;2023-04-01T05:24:08;17.90;75.40
22108;DHT22;11220;48.812;9.128;2023-04-01T05:26:34;17.70;75.30
22108;DHT22;11220;48.812;9.128;2023-04-01T05:29:00;17.90;75.30
22108;DHT22;11220;48.812;9.128;2023-04-01T05:31:25;18.00;75.30
22108;DHT22;11220;48.812;9.128;2023-04-01T05:33:51;18.00;75.20
22108;DHT22;11220;48.812;9.128;2023-04-01T05:36:17;18.00;75.30
22108;DHT22;11220;48.812;9.128;2023-04-01T05:38:43;18.00;75.20
22108;DHT22;11220;48.812;9.128;2023-04-01T05:41:11;18.10;75.40
22108;DHT22;11220;48.812;9.128;2023-04-01T05:43:37;18.10;75.40
22108;DHT22;11220;48.812;9.128;2023-04-01T05:46:02;18.10;75.40
22108;DHT22;11220;48.812;9.128;2023-04-01T05:48:28;18.20;75.40
22108;DHT22;11220;48.812;9.128;2023-04-01T05:50:53;18.10;75.30
22108;DHT22;11220;48.812;9.128;2023-04-01T05:53:19;18.20;75.30
22108;DHT22;11220;48.812;9.128;2023-04-01T05:55:45;18.20;75.30
22108;DHT22;11220;48.812;9.128;2023-04-01T05:58:10;18.20;75.20
22108;DHT22;11220;48.812;9.128;2023-04-01T06:00:36;18.20;75.10
22108;DHT22;11220;48.812;9.128;2023-04-01T06:03:02;18.30;75.10
22108;DHT22;11220;48.812;9.128;2023-04-01T06:05:29;18.30;75.10
22108;DHT22;11220;48.812;9.128;2023-04-01T06:07:59;18.30;75.00
22108;DHT22;11220;48.812;9.128;2023-04-01T06:16:28;18.30;74.80
22108;DHT22;11220;48.812;9.128;2023-04-01T06:32:46;18.40;74.60
22108;DHT22;11220;48.812;9.128;2023-04-01T06:43:15;18.40;74.60
22108;DHT22;11220;48.812;9.128;2023-04-01T06:46:22;18.40;74.60
22108;DHT22;11220;48.812;9.128;2023-04-01T06:54:42;18.50;74.60
22108;DHT22;11220;48.812;9.128;2023-04-01T06:57:35;18.50;74.50
22108;DHT22;11220;48.812;9.128;2023-04-01T07:00:13;18.50;74.40
22108;DHT22;11220;48.812;9.128;2023-04-01T07:02:45;18.50;74.40
22108;DHT22;11220;48.812;9.128;2023-04-01T07:05:14;18.50;74.40
22108;DHT22;11220;48.812;9.128;2023-04-01T07:07:45;18.50;74.40
22108;DHT22;11220;48.812;9.128;2023-04-01T07:10:19;18.50;74.30
22108;DHT22;11220;48.812;9.128;2023-04-01T07:12:51;18.50;74.30
22108;DHT22;11220;48.812;9.128;2023-04-01T07:15:33;18.50;74.20
22108;DHT22;11220;48.812;9.128;2023-04-01T07:18:14;18.50;74.20
22108;DHT22;11220;48.812;9.128;2023-04-01T07:20:41;18.50;74.10
22108;DHT22;11220;48.812;9.128;2023-04-01T07:23:15;18.50;74.10
22108;DHT22;11220;48.812;9.128;2023-04-01T07:25:44;18.50;74.00
22108;DHT22;11220;48.812;9.128;2023-04-01T07:28:15;18.60;74.10
22108;DHT22;11220;48.812;9.128;2023-04-01T07:31:25;18.50;74.10
22108;DHT22;11220;48.812;9.128;2023-04-01T07:39:13;18.50;73.90
22108;DHT22;11220;48.812;9.128;2023-04-01T07:41:52;18.50;73.90
22108;DHT22;11220;48.812;9.128;2023-04-01T07:44:25;18.50;73.90
22108;DHT22;11220;48.812;9.128;2023-04-01T07:46:53;18.50;73.90
22108;DHT22;11220;48.812;9.128;2023-04-01T07:52:24;18.50;73.90
22108;DHT22;11220;48.812;9.128;2023-04-01T07:58:05;18.60;74.10
22108;DHT22;11220;48.812;9.128;2023-04-01T08:00:50;18.60;74.10
22108;DHT22;11220;48.812;9.128;2023-04-01T08:06:26;18.60;74.20
22108;DHT22;11220;48.812;9.128;2023-04-01T08:14:07;18.60;74.20
22108;DHT22;11220;48.812;9.128;2023-04-01T08:16:45;18.60;74.90
22108;DHT22;11220;48.812;9.128;2023-04-01T08:22:29;18.60;74.30
22108;DHT22;11220;48.812;9.128;2023-04-01T08:24:58;18.60;74.30
22108;DHT22;11220;48.812;9.128;2023-04-01T08:27:28;18.60;74.40
22108;DHT22;11220;48.812;9.128;2023-04-01T08:32:39;18.60;74.30
22108;DHT22;11220;48.812;9.128;2023-04-01T08:35:25;18.60;74.30
22108;DHT22;11220;48.812;9.128;2023-04-01T08:37:53;18.70;74.40
22108;DHT22;11220;48.812;9.128;2023-04-01T08:43:22;18.70;74.40
22108;DHT22;11220;48.812;9.128;2023-04-01T08:45:56;18.70;74.40
22108;DHT22;11220;48.812;9.128;2023-04-01T08:56:34;18.70;74.60
22108;DHT22;11220;48.812;9.128;2023-04-01T09:09:57;18.70;74.40
22108;DHT22;11220;48.812;9.128;2023-04-01T09:18:16;18.70;74.30
22108;DHT22;11220;48.812;9.128;2023-04-01T09:21:10;18.70;74.20
22108;DHT22;11220;48.812;9.128;2023-04-01T09:46:22;18.80;73.70
22108;DHT22;11220;48.812;9.128;2023-04-01T09:54:36;18.80;73.60
22108;DHT22;11220;48.812;9.128;2023-04-01T10:01:00;18.80;73.50
22108;DHT22;11220;48.812;9.128;2023-04-01T10:17:41;18.80;73.40
22108;DHT22;11220;48.812;9.128;2023-04-01T10:26:03;18.90;73.40
22108;DHT22;11220;48.812;9.128;2023-04-01T10:28:59;18.90;73.40
22108;DHT22;11220;48.812;9.128;2023-04-01T10:40:35;18.90;73.30
22108;DHT22;11220;48.812;9.128;2023-04-01T10:43:23;18.90;73.30
22108;DHT22;11220;48.812;9.128;2023-04-01T10:46:32;18.90;73.40
22108;DHT22;11220;48.812;9.128;2023-04-01T10:55:19;18.90;73.30
22108;DHT22;11220;48.812;9.128;2023-04-01T11:07:08;18.90;73.30
22108;DHT22;11220;48.812;9.128;2023-04-01T11:21:46;19.00;73.30
22108;DHT22;11220;48.812;9.128;2023-04-01T11:32:50;19.00;73.30
22108;DHT22;11220;48.812;9.128;2023-04-01T11:35:42;19.00;73.30
22108;DHT22;11220;48.812;9.128;2023-04-01T11:44:19;19.10;73.40
22108;DHT22;11220;48.812;9.128;2023-04-01T11:52:47;19.10;73.30
22108;DHT22;11220;48.812;9.128;2023-04-01T12:01:13;19.10;73.40
22108;DHT22;11220;48.812;9.128;2023-04-01T12:07:40;19.10;73.40
22108;DHT22;11220;48.812;9.128;2023-04-01T12:22:40;19.10;73.30
22108;DHT22;11220;48.812;9.128;2023-04-01T12:28:25;19.10;73.30
22108;DHT22;11220;48.812;9.128;2023-04-01T12:30:57;19.10;73.30
22108;DHT22;11220;48.812;9.128;2023-04-01T12:39:45;19.10;73.30
22108;DHT22;11220;48.812;9.128;2023-04-01T12:42:38;19.10;73.30
22108;DHT22;11220;48.812;9.128;2023-04-01T12:48:15;19.10;73.50
22108;DHT22;11220;48.812;9.128;2023-04-01T12:56:14;19.10;73.50
22108;DHT22;11220;48.812;9.128;2023-04-01T13:04:56;19.10;73.70
22108;DHT22;11220;48.812;9.128;2023-04-01T13:10:27;19.20;73.70
22108;DHT22;11220;48.812;9.128;2023-04-01T13:13:21;19.20;73.60
22108;DHT22;11220;48.812;9.128;2023-04-01T13:15:54;19.10;73.60
22108;DHT22;11220;48.812;9.128;2023-04-01T13:21:21;19.10;73.60
22108;DHT22;11220;48.812;9.128;2023-04-01T13:27:11;19.10;74.50
22108;DHT22;11220;48.812;9.128;2023-04-01T13:43:24;19.10;73.20
22108;DHT22;11220;48.812;9.128;2023-04-01T13:46:08;19.10;73.10
22108;DHT22;11220;48.812;9.128;2023-04-01T13:57:52;19.10;72.80
22108;DHT22;11220;48.812;9.128;2023-04-01T14:00:45;19.10;72.80
22108;DHT22;11220;48.812;9.128;2023-04-01T14:03:28;19.10;72.80
22108;DHT22;11220;48.812;9.128;2023-04-01T14:11:53;19.10;72.70
22108;DHT22;11220;48.812;9.128;2023-04-01T14:14:52;19.20;72.70
22108;DHT22;11220;48.812;9.128;2023-04-01T14:20:02;19.20;72.60
22108;DHT22;11220;48.812;9.128;2023-04-01T14:31:18;19.20;72.70
22108;DHT22;11220;48.812;9.128;2023-04-01T14:34:05;19.10;72.70
22108;DHT22;11220;48.812;9.128;2023-04-01T14:36:59;19.10;72.60
22108;DHT22;11220;48.812;9.128;2023-04-01T14:47:48;19.10;72.50
22108;DHT22;11220;48.812;9.128;2023-04-01T14:50:23;19.10;72.40
22108;DHT22;11220;48.812;9.128;2023-04-01T14:52:59;19.10;72.50
22108;DHT22;11220;48.812;9.128;2023-04-01T14:55:56;19.10;72.50
22108;DHT22;11220;48.812;9.128;2023-04-01T14:58:24;19.10;72.40
22108;DHT22;11220;48.812;9.128;2023-04-01T15:06:56;19.10;72.40
22108;DHT22;11220;48.812;9.128;2023-04-01T15:09:40;19.10;72.40
22108;DHT22;11220;48.812;9.128;2023-04-01T15:12:17;19.10;72.50
22108;DHT22;11220;48.812;9.128;2023-04-01T15:15:09;19.10;72.50
22108;DHT22;11220;48.812;9.128;2023-04-01T15:20:53;19.10;72.60
22108;DHT22;11220;48.812;9.128;2023-04-01T15:23:31;19.10;72.70
22108;DHT22;11220;48.812;9.128;2023-04-01T15:40:03;19.00;72.70
22108;DHT22;11220;48.812;9.128;2023-04-01T15:45:49;19.00;72.60
22108;DHT22;11220;48.812;9.128;2023-04-01T15:48:21;19.00;73.60
22108;DHT22;11220;48.812;9.128;2023-04-01T15:51:06;19.00;71.80
22108;DHT22;11220;48.812;9.128;2023-04-01T15:56:29;18.90;71.70
22108;DHT22;11220;48.812;9.128;2023-04-01T15:59:18;18.90;71.70
22108;DHT22;11220;48.812;9.128;2023-04-01T16:01:59;18.90;72.20
22108;DHT22;11220;48.812;9.128;2023-04-01T16:04:43;18.90;72.40
22108;DHT22;11220;48.812;9.128;2023-04-01T16:07:41;18.90;72.50
22108;DHT22;11220;48.812;9.128;2023-04-01T16:13:02;18.90;72.70
22108;DHT22;11220;48.812;9.128;2023-04-01T16:21:24;18.90;72.70
22108;DHT22;11220;48.812;9.128;2023-04-01T16:24:02;18.80;72.70
22108;DHT22;11220;48.812;9.128;2023-04-01T16:26:54;18.90;72.70
22108;DHT22;11220;48.812;9.128;2023-04-01T16:29:26;18.90;72.70
22108;DHT22;11220;48.812;9.128;2023-04-01T16:37:59;18.90;72.70
22108;DHT22;11220;48.812;9.128;2023-04-01T16:40:47;18.80;72.70
22108;DHT22;11220;48.812;9.128;2023-04-01T16:43:17;18.80;72.70
22108;DHT22;11220;48.812;9.128;2023-04-01T16:46:31;18.80;72.70
22108;DHT22;11220;48.812;9.128;2023-04-01T16:48:59;18.80;72.80
22108;DHT22;11220;48.812;9.128;2023-04-01T16:54:29;18.80;72.80
22108;DHT22;11220;48.812;9.128;2023-04-01T16:57:11;18.80;72.80
22108;DHT22;11220;48.812;9.128;2023-04-01T16:59:54;18.80;72.80
22108;DHT22;11220;48.812;9.128;2023-04-01T17:02:30;18.80;72.80
22108;DHT22;11220;48.812;9.128;2023-04-01T17:05:11;18.80;72.80
22108;DHT22;11220;48.812;9.128;2023-04-01T17:07:56;18.80;72.80
22108;DHT22;11220;48.812;9.128;2023-04-01T17:13:46;18.80;72.90
22108;DHT22;11220;48.812;9.128;2023-04-01T17:21:45;18.80;73.00
22108;DHT22;11220;48.812;9.128;2023-04-01T17:26:53;18.70;73.00
22108;DHT22;11220;48.812;9.128;2023-04-01T17:29:31;18.70;73.00
22108;DHT22;11220;48.812;9.128;2023-04-01T17:32:08;18.70;73.10
22108;DHT22;11220;48.812;9.128;2023-04-01T17:35:00;18.70;73.10
22108;DHT22;11220;48.812;9.128;2023-04-01T17:37:43;18.70;73.20
22108;DHT22;11220;48.812;9.128;2023-04-01T17:40:15;18.70;73.20
22108;DHT22;11220;48.812;9.128;2023-04-01T17:42:57;18.70;73.30
22108;DHT22;11220;48.812;9.128;2023-04-01T17:45:53;18.70;73.30
22108;DHT22;11220;48.812;9.128;2023-04-01T17:51:23;18.70;73.40
22108;DHT22;11220;48.812;9.128;2023-04-01T18:05:05;18.70;73.50
22108;DHT22;11220;48.812;9.128;2023-04-01T18:07:51;18.60;73.50
22108;DHT22;11220;48.812;9.128;2023-04-01T18:10:28;18.60;73.50
22108;DHT22;11220;48.812;9.128;2023-04-01T18:13:23;18.60;73.50
22108;DHT22;11220;48.812;9.128;2023-04-01T18:16:00;18.60;73.60
22108;DHT22;11220;48.812;9.128;2023-04-01T18:18:56;18.60;73.60
22108;DHT22;11220;48.812;9.128;2023-04-01T18:22:16;18.60;73.60
22108;DHT22;11220;48.812;9.128;2023-04-01T18:24:59;18.60;73.60
22108;DHT22;11220;48.812;9.128;2023-04-01T18:27:33;18.60;73.70
22108;DHT22;11220;48.812;9.128;2023-04-01T18:30:30;18.60;73.70
22108;DHT22;11220;48.812;9.128;2023-04-01T18:36:13;18.60;73.70
22108;DHT22;11220;48.812;9.128;2023-04-01T18:38:47;18.60;73.70
22108;DHT22;11220;48.812;9.128;2023-04-01T18:41:22;18.50;73.70
22108;DHT22;11220;48.812;9.128;2023-04-01T18:44:28;18.50;73.70
22108;DHT22;11220;48.812;9.128;2023-04-01T18:47:15;18.50;73.70
22108;DHT22;11220;48.812;9.128;2023-04-01T18:49:46;18.50;73.80
22108;DHT22;11220;48.812;9.128;2023-04-01T18:52:20;18.50;73.80
22108;DHT22;11220;48.812;9.128;2023-04-01T18:55:18;18.50;73.90
22108;DHT22;11220;48.812;9.128;2023-04-01T19:00:54;18.60;74.10
22108;DHT22;11220;48.812;9.128;2023-04-01T19:03:53;18.50;74.20
22108;DHT22;11220;48.812;9.128;2023-04-01T19:06:30;18.50;74.10
22108;DHT22;11220;48.812;9.128;2023-04-01T19:09:15;18.50;74.20
22108;DHT22;11220;48.812;9.128;2023-04-01T19:11:56;18.50;74.30
22108;DHT22;11220;48.812;9.128;2023-04-01T19:14:35;18.50;74.30
22108;DHT22;11220;48.812;9.128;2023-04-01T19:23:44;18.50;74.50
22108;DHT22;11220;48.812;9.128;2023-04-01T19:26:32;18.50;74.50
22108;DHT22;11220;48.812;9.128;2023-04-01T19:29:37;18.50;74.60
22108;DHT22;11220;48.812;9.128;2023-04-01T19:32:18;18.50;74.60
22108;DHT22;11220;48.812;9.128;2023-04-01T19:34:54;18.50;74.70
22108;DHT22;11220;48.812;9.128;2023-04-01T19:37:32;18.50;74.80
22108;DHT22;11220;48.812;9.128;2023-04-01T19:40:17;18.40;74.70
22108;DHT22;11220;48.812;9.128;2023-04-01T19:42:59;18.40;74.70
22108;DHT22;11220;48.812;9.128;2023-04-01T19:45:37;18.40;74.80
22108;DHT22;11220;48.812;9.128;2023-04-01T19:48:31;18.40;74.80
22108;DHT22;11220;48.812;9.128;2023-04-01T19:56:23;18.40;74.90
22108;DHT22;11220;48.812;9.128;2023-04-01T20:01:44;18.40;74.90
22108;DHT22;11220;48.812;9.128;2023-04-01T20:04:23;18.40;74.90
22108;DHT22;11220;48.812;9.128;2023-04-01T20:07:09;18.30;74.80
22108;DHT22;11220;48.812;9.128;2023-04-01T20:09:58;18.30;74.90
22108;DHT22;11220;48.812;9.128;2023-04-01T20:15:02;18.30;75.80
22108;DHT22;11220;48.812;9.128;2023-04-01T20:20:21;18.30;74.90
22108;DHT22;11220;48.812;9.128;2023-04-01T20:23:05;18.30;75.00
22108;DHT22;11220;48.812;9.128;2023-04-01T20:25:40;18.30;75.00
22108;DHT22;11220;48.812;9.128;2023-04-01T20:36:24;18.30;75.00
22108;DHT22;11220;48.812;9.128;2023-04-01T20:39:33;18.30;75.00
22108;DHT22;11220;48.812;9.128;2023-04-01T20:55:48;18.30;75.10
22108;DHT22;11220;48.812;9.128;2023-04-01T21:01:36;18.30;75.20
22108;DHT22;11220;48.812;9.128;2023-04-01T21:04:19;18.20;75.10
22108;DHT22;11220;48.812;9.128;2023-04-01T21:06:59;18.30;75.20
22108;DHT22;11220;48.812;9.128;2023-04-01T21:15:27;18.20;75.10
22108;DHT22;11220;48.812;9.128;2023-04-01T21:17:58;18.20;75.20
22108;DHT22;11220;48.812;9.128;2023-04-01T21:23:40;18.20;75.20
22108;DHT22;11220;48.812;9.128;2023-04-01T21:26:23;18.20;75.20
22108;DHT22;11220;48.812;9.128;2023-04-01T21:29:33;18.20;75.20
22108;DHT22;11220;48.812;9.128;2023-04-01T21:32:24;18.20;75.20
22108;DHT22;11220;48.812;9.128;2023-04-01T21:35:08;18.20;75.20
22108;DHT22;11220;48.812;9.128;2023-04-01T21:38:11;18.20;75.20
22108;DHT22;11220;48.812;9.128;2023-04-01T21:40:54;18.20;75.20
22108;DHT22;11220;48.812;9.128;2023-04-01T21:43:52;18.20;75.30
22108;DHT22;11220;48.812;9.128;2023-04-01T21:46:52;18.20;75.30
22108;DHT22;11220;48.812;9.128;2023-04-01T22:01:19;18.10;75.20
22108;DHT22;11220;48.812;9.128;2023-04-01T22:04:11;18.10;75.10
22108;DHT22;11220;48.812;9.128;2023-04-01T22:09:23;18.10;75.20
22108;DHT22;11220;48.812;9.128;2023-04-01T22:18:18;18.10;75.20
22108;DHT22;11220;48.812;9.128;2023-04-01T22:20:53;18.10;75.10
22108;DHT22;11220;48.812;9.128;2023-04-01T22:23:58;18.10;75.20
22108;DHT22;11220;48.812;9.128;2023-04-01T22:26:44;18.10;75.20
22108;DHT22;11220;48.812;9.128;2023-04-01T22:29:23;18.10;75.20
22108;DHT22;11220;48.812;9.128;2023-04-01T22:32:01;18.10;75.20
22108;DHT22;11220;48.812;9.128;2023-04-01T22:34:43;18.10;75.20
22108;DHT22;11220;48.812;9.128;2023-04-01T22:42:44;18.10;75.20
22108;DHT22;11220;48.812;9.128;2023-04-01T22:45:39;18.10;75.20
22108;DHT22;11220;48.812;9.128;2023-04-01T22:48:36;18.00;75.20
22108;DHT22;11220;48.812;9.128;2023-04-01T22:51:18;18.00;75.10
22108;DHT22;11220;48.812;9.128;2023-04-01T22:53:57;18.10;75.20
22108;DHT22;11220;48.812;9.128;2023-04-01T22:56:37;18.00;75.10
22108;DHT22;11220;48.812;9.128;2023-04-01T22:59:26;18.00;75.10
22108;DHT22;11220;48.812;9.128;2023-04-01T23:02:01;18.00;75.10
22108;DHT22;11220;48.812;9.128;2023-04-01T23:04:32;18.00;75.10
22108;DHT22;11220;48.812;9.128;2023-04-01T23:07:04;18.00;75.10
22108;DHT22;11220;48.812;9.128;2023-04-01T23:09:42;18.00;75.20
22108;DHT22;11220;48.812;9.128;2023-04-01T23:12:11;18.00;75.10
22108;DHT22;11220;48.812;9.128;2023-04-01T23:14:47;18.00;75.20
22108;DHT22;11220;48.812;9.128;2023-04-01T23:22:33;18.00;76.10
22108;DHT22;11220;48.812;9.128;2023-04-01T23:38:17;18.00;75.20
22108;DHT22;11220;48.812;9.128;2023-04-01T23:40:43;17.90;75.10
22108;DHT22;11220;48.812;9.128;2023-04-01T23:43:24;18.00;75.20
22108;DHT22;11220;48.812;9.128;2023-04-01T23:45:51;17.90;75.10
22108;DHT22;11220;48.812;9.128;2023-04-01T23:48:19;18.00;75.20
22108;DHT22;11220;48.812;9.128;2023-04-01T23:50:48;17.90;75.10
22108;DHT22;11220;48.812;9.128;2023-04-01T23:53:18;17.90;75.20
22108;DHT22;11220;48.812;9.128;2023-04-01T23:55:44;17.90;75.10
22108;DHT22;11220;48.812;9.128;2023-04-01T23:58:13;17.90;75.10
